sensor_id;sensor_type;location;lat;lon;timestamp;pressure;altitude;pressure_sealevel;temperature;humidity
72110;BME280;59983;52.010;5.420;2024-03-17T00:01:06;102272.78;;;17.77;69.80
72110;BME280;59983;52.010;5.420;2024-03-17T00:03:32;102265.72;;;17.76;69.99
72110;BME280;59983;52.010;5.420;2024-03-17T00:05:59;102269.25;;;17.77;69.86
72110;BME280;59983;52.010;5.420;2024-03-17T00:08:25;102265.25;;;17.74;69.83
72110;BME280;59983;52.010;5.420;2024-03-17T00:10:51;102269.59;;;17.75;69.66
72110;BME280;59983;52.010;5.420;2024-03-17T00:13:17;102265.25;;;17.74;69.93
72110;BME280;59983;52.010;5.420;2024-03-17T00:15:43;102262.09;;;17.72;69.78
72110;BME280;59983;52.010;5.420;2024-03-17T00:18:09;102253.84;;;17.72;69.95
72110;BME280;59983;52.010;5.420;2024-03-17T00:20:36;102251.09;;;17.72;69.92
72110;BME280;59983;52.010;5.420;2024-03-17T00:23:02;102251.91;;;17.73;69.80
72110;BME280;59983;52.010;5.420;2024-03-17T00:25:27;102242.06;;;17.72;69.71
72110;BME280;59983;52.010;5.420;2024-03-17T00:27:53;102247.13;;;17.70;69.70
72110;BME280;59983;52.010;5.420;2024-03-17T00:30:22;102256.97;;;17.71;69.80
72110;BME280;59983;52.010;5.420;2024-03-17T00:32:47;102245.19;;;17.70;69.61
72110;BME280;59983;52.010;5.420;2024-03-17T00:35:13;102251.81;;;17.69;69.74
72110;BME280;59983;52.010;5.420;2024-03-17T00:37:49;102240.03;;;17.69;69.69
72110;BME280;59983;52.010;5.420;2024-03-17T00:40:17;102240.41;;;17.67;69.87
72110;BME280;59983;52.010;5.420;2024-03-17T00:42:43;102236.03;;;17.66;69.72
72110;BME280;59983;52.010;5.420;2024-03-17T00:45:10;102236.03;;;17.66;69.84
72110;BME280;59983;52.010;5.420;2024-03-17T00:47:37;102235.25;;;17.66;69.74
72110;BME280;59983;52.010;5.420;2024-03-17T00:50:03;102230.91;;;17.65;69.85
72110;BME280;59983;52.010;5.420;2024-03-17T00:52:36;102235.59;;;17.64;69.69
72110;BME280;59983;52.010;5.420;2024-03-17T00:55:02;102234.81;;;17.64;69.88
72110;BME280;59983;52.010;5.420;2024-03-17T00:57:28;102236.75;;;17.63;69.77
72110;BME280;59983;52.010;5.420;2024-03-17T00:59:54;102233.22;;;17.63;69.80
72110;BME280;59983;52.010;5.420;2024-03-17T01:02:20;102238.72;;;17.63;69.77
72110;BME280;59983;52.010;5.420;2024-03-17T01:04:47;102228.91;;;17.62;69.80
72110;BME280;59983;52.010;5.420;2024-03-17T01:07:12;102233.59;;;17.61;69.87
72110;BME280;59983;52.010;5.420;2024-03-17T01:09:39;102230.84;;;17.61;69.78
72110;BME280;59983;52.010;5.420;2024-03-17T01:12:04;102221.81;;;17.61;69.86
72110;BME280;59983;52.010;5.420;2024-03-17T01:14:31;102224.94;;;17.59;69.75
72110;BME280;59983;52.010;5.420;2024-03-17T01:16:59;102222.53;;;17.58;69.90
72110;BME280;59983;52.010;5.420;2024-03-17T01:19:25;102223.34;;;17.58;69.88
72110;BME280;59983;52.010;5.420;2024-03-17T01:21:52;102224.47;;;17.57;69.69
72110;BME280;59983;52.010;5.420;2024-03-17T01:24:18;102214.28;;;17.58;69.71
72110;BME280;59983;52.010;5.420;2024-03-17T01:26:44;102222.53;;;17.58;69.86
72110;BME280;59983;52.010;5.420;2024-03-17T01:29:10;102217.84;;;17.58;69.72
72110;BME280;59983;52.010;5.420;2024-03-17T01:31:35;102212.69;;;17.56;69.69
72110;BME280;59983;52.010;5.420;2024-03-17T01:34:01;102207.22;;;17.56;69.89
72110;BME280;59983;52.010;5.420;2024-03-17T01:36:27;102202.88;;;17.55;69.68
72110;BME280;59983;52.010;5.420;2024-03-17T01:38:52;102196.97;;;17.53;69.82
72110;BME280;59983;52.010;5.420;2024-03-17T01:41:18;102192.28;;;17.54;69.68
72110;BME280;59983;52.010;5.420;2024-03-17T01:43:43;102187.94;;;17.53;69.85
72110;BME280;59983;52.010;5.420;2024-03-17T01:46:14;102185.19;;;17.53;69.73
72110;BME280;59983;52.010;5.420;2024-03-17T01:48:40;102187.94;;;17.53;69.74
72110;BME280;59983;52.010;5.420;2024-03-17T01:51:08;102183.97;;;17.50;69.79
72110;BME280;59983;52.010;5.420;2024-03-17T01:53:37;102188.31;;;17.51;69.85
72110;BME280;59983;52.010;5.420;2024-03-17T01:56:03;102182.03;;;17.51;69.71
72110;BME280;59983;52.010;5.420;2024-03-17T01:58:32;102181.22;;;17.50;69.70
72110;BME280;59983;52.010;5.420;2024-03-17T02:00:58;102182.38;;;17.49;69.62
72110;BME280;59983;52.010;5.420;2024-03-17T02:03:24;102177.69;;;17.50;69.80
72110;BME280;59983;52.010;5.420;2024-03-17T02:05:49;102173.34;;;17.49;69.62
72110;BME280;59983;52.010;5.420;2024-03-17T02:08:15;102168.69;;;17.49;69.77
72110;BME280;59983;52.010;5.420;2024-03-17T02:10:41;102167.06;;;17.48;69.67
72110;BME280;59983;52.010;5.420;2024-03-17T02:13:07;102169.00;;;17.48;69.70
72110;BME280;59983;52.010;5.420;2024-03-17T02:15:32;102171.75;;;17.48;69.67
72110;BME280;59983;52.010;5.420;2024-03-17T02:17:58;102170.16;;;17.47;69.70
72110;BME280;59983;52.010;5.420;2024-03-17T02:20:24;102167.41;;;17.47;69.61
72110;BME280;59983;52.010;5.420;2024-03-17T02:23:10;102162.31;;;17.45;69.74
72110;BME280;59983;52.010;5.420;2024-03-17T02:25:36;102157.97;;;17.44;69.70
72110;BME280;59983;52.010;5.420;2024-03-17T02:28:02;102156.81;;;17.45;69.78
72110;BME280;59983;52.010;5.420;2024-03-17T02:30:28;102156.03;;;17.45;69.75
72110;BME280;59983;52.010;5.420;2024-03-17T02:32:54;102148.94;;;17.44;69.63
72110;BME280;59983;52.010;5.420;2024-03-17T02:35:22;102152.84;;;17.43;69.82
72110;BME280;59983;52.010;5.420;2024-03-17T02:37:47;102150.91;;;17.43;69.73
72110;BME280;59983;52.010;5.420;2024-03-17T02:40:13;102145.78;;;17.42;69.68
72110;BME280;59983;52.010;5.420;2024-03-17T02:42:39;102153.22;;;17.41;69.74
72110;BME280;59983;52.010;5.420;2024-03-17T02:45:08;102154.00;;;17.42;69.70
72110;BME280;59983;52.010;5.420;2024-03-17T02:47:34;102155.16;;;17.41;69.50
72110;BME280;59983;52.010;5.420;2024-03-17T02:50:00;102151.25;;;17.42;69.61
72110;BME280;59983;52.010;5.420;2024-03-17T02:52:26;102152.41;;;17.41;69.76
72110;BME280;59983;52.010;5.420;2024-03-17T02:54:52;102146.13;;;17.40;69.61
72110;BME280;59983;52.010;5.420;2024-03-17T02:57:18;102152.75;;;17.39;69.87
72110;BME280;59983;52.010;5.420;2024-03-17T02:59:44;102143.72;;;17.39;69.74
72110;BME280;59983;52.010;5.420;2024-03-17T03:02:11;102144.53;;;17.39;69.75
72110;BME280;59983;52.010;5.420;2024-03-17T03:04:37;102142.16;;;17.38;69.83
72110;BME280;59983;52.010;5.420;2024-03-17T03:07:03;102140.56;;;17.37;69.81
72110;BME280;59983;52.010;5.420;2024-03-17T03:09:29;102138.63;;;17.37;69.76
72110;BME280;59983;52.010;5.420;2024-03-17T03:11:58;102134.66;;;17.35;69.81
72110;BME280;59983;52.010;5.420;2024-03-17T03:14:25;102143.31;;;17.37;69.66
72110;BME280;59983;52.010;5.420;2024-03-17T03:16:51;102135.06;;;17.37;69.79
72110;BME280;59983;52.010;5.420;2024-03-17T03:19:18;102139.34;;;17.34;69.73
72110;BME280;59983;52.010;5.420;2024-03-17T03:21:45;102143.66;;;17.35;69.78
72110;BME280;59983;52.010;5.420;2024-03-17T03:24:11;102146.41;;;17.35;69.88
72110;BME280;59983;52.010;5.420;2024-03-17T03:26:37;102153.84;;;17.35;69.72
72110;BME280;59983;52.010;5.420;2024-03-17T03:29:04;102153.06;;;17.34;69.70
72110;BME280;59983;52.010;5.420;2024-03-17T03:31:33;102157.75;;;17.34;69.91
72110;BME280;59983;52.010;5.420;2024-03-17T03:33:59;102139.34;;;17.34;69.72
72110;BME280;59983;52.010;5.420;2024-03-17T03:36:27;102135.00;;;17.33;69.81
72110;BME280;59983;52.010;5.420;2024-03-17T03:38:53;102129.53;;;17.33;69.67
72110;BME280;59983;52.010;5.420;2024-03-17T03:41:19;102118.91;;;17.32;69.72
72110;BME280;59983;52.010;5.420;2024-03-17T03:43:45;102125.19;;;17.32;69.79
72110;BME280;59983;52.010;5.420;2024-03-17T03:46:13;102125.53;;;17.31;69.88
72110;BME280;59983;52.010;5.420;2024-03-17T03:48:39;102121.66;;;17.32;69.85
72110;BME280;59983;52.010;5.420;2024-03-17T03:51:08;102124.41;;;17.32;69.75
72110;BME280;59983;52.010;5.420;2024-03-17T03:53:35;102114.94;;;17.29;69.48
72110;BME280;59983;52.010;5.420;2024-03-17T03:56:05;102108.28;;;17.30;69.88
72110;BME280;59983;52.010;5.420;2024-03-17T03:58:37;102102.38;;;17.28;69.79
72110;BME280;59983;52.010;5.420;2024-03-17T04:01:07;102093.78;;;17.30;69.87
72110;BME280;59983;52.010;5.420;2024-03-17T04:03:33;102093.00;;;17.29;69.80
72110;BME280;59983;52.010;5.420;2024-03-17T04:06:10;102087.50;;;17.29;69.79
72110;BME280;59983;52.010;5.420;2024-03-17T04:08:37;102088.66;;;17.28;69.70
72110;BME280;59983;52.010;5.420;2024-03-17T04:11:05;102083.97;;;17.28;69.67
72110;BME280;59983;52.010;5.420;2024-03-17T04:13:31;102072.19;;;17.28;69.83
72110;BME280;59983;52.010;5.420;2024-03-17T04:15:57;102078.84;;;17.27;69.75
72110;BME280;59983;52.010;5.420;2024-03-17T04:18:27;102076.09;;;17.27;69.75
72110;BME280;59983;52.010;5.420;2024-03-17T04:20:57;102084.34;;;17.27;69.78
72110;BME280;59983;52.010;5.420;2024-03-17T04:23:23;102083.13;;;17.24;69.84
72110;BME280;59983;52.010;5.420;2024-03-17T04:25:53;102089.03;;;17.26;69.67
72110;BME280;59983;52.010;5.420;2024-03-17T04:28:18;102068.25;;;17.25;69.65
72110;BME280;59983;52.010;5.420;2024-03-17T04:30:44;102069.03;;;17.26;69.81
72110;BME280;59983;52.010;5.420;2024-03-17T04:33:11;102071.78;;;17.26;69.86
72110;BME280;59983;52.010;5.420;2024-03-17T04:35:38;102061.97;;;17.25;69.87
72110;BME280;59983;52.010;5.420;2024-03-17T04:38:04;102065.88;;;17.24;69.68
72110;BME280;59983;52.010;5.420;2024-03-17T04:40:32;102065.88;;;17.24;69.74
72110;BME280;59983;52.010;5.420;2024-03-17T04:42:57;102062.34;;;17.23;69.94
72110;BME280;59983;52.010;5.420;2024-03-17T04:45:23;102059.59;;;17.23;69.86
72110;BME280;59983;52.010;5.420;2024-03-17T04:47:48;102056.84;;;17.23;69.64
72110;BME280;59983;52.010;5.420;2024-03-17T04:50:14;102052.50;;;17.22;69.89
72110;BME280;59983;52.010;5.420;2024-03-17T04:52:40;102050.56;;;17.23;69.87
72110;BME280;59983;52.010;5.420;2024-03-17T04:55:06;102059.13;;;17.21;69.82
72110;BME280;59983;52.010;5.420;2024-03-17T04:57:31;102072.84;;;17.21;69.87
72110;BME280;59983;52.010;5.420;2024-03-17T04:59:57;102062.66;;;17.22;70.02
72110;BME280;59983;52.010;5.420;2024-03-17T05:02:22;102058.34;;;17.21;70.04
72110;BME280;59983;52.010;5.420;2024-03-17T05:04:49;102060.28;;;17.20;70.09
72110;BME280;59983;52.010;5.420;2024-03-17T05:07:15;102064.63;;;17.21;70.04
72110;BME280;59983;52.010;5.420;2024-03-17T05:09:41;102063.41;;;17.19;70.07
72110;BME280;59983;52.010;5.420;2024-03-17T05:12:07;102059.50;;;17.20;70.24
72110;BME280;59983;52.010;5.420;2024-03-17T05:14:33;102068.88;;;17.19;70.13
72110;BME280;59983;52.010;5.420;2024-03-17T05:16:58;102066.94;;;17.19;70.18
72110;BME280;59983;52.010;5.420;2024-03-17T05:19:24;102063.41;;;17.19;69.87
72110;BME280;59983;52.010;5.420;2024-03-17T05:21:50;102062.59;;;17.18;69.96
72110;BME280;59983;52.010;5.420;2024-03-17T05:24:15;102062.59;;;17.18;70.05
72110;BME280;59983;52.010;5.420;2024-03-17T05:26:42;102058.28;;;17.17;69.99
72110;BME280;59983;52.010;5.420;2024-03-17T05:29:08;102061.03;;;17.17;70.16
72110;BME280;59983;52.010;5.420;2024-03-17T05:31:33;102064.56;;;17.18;70.36
72110;BME280;59983;52.010;5.420;2024-03-17T05:33:59;102066.88;;;17.16;70.20
72110;BME280;59983;52.010;5.420;2024-03-17T05:36:25;102059.81;;;17.15;69.99
72110;BME280;59983;52.010;5.420;2024-03-17T05:38:51;102056.28;;;17.14;70.01
72110;BME280;59983;52.010;5.420;2024-03-17T05:41:17;102059.81;;;17.15;70.00
72110;BME280;59983;52.010;5.420;2024-03-17T05:43:42;102046.09;;;17.15;70.17
72110;BME280;59983;52.010;5.420;2024-03-17T05:46:10;102040.94;;;17.13;70.23
72110;BME280;59983;52.010;5.420;2024-03-17T05:48:37;102039.00;;;17.14;70.13
72110;BME280;59983;52.010;5.420;2024-03-17T05:51:08;102048.38;;;17.13;70.33
72110;BME280;59983;52.010;5.420;2024-03-17T05:53:34;102050.31;;;17.12;70.08
72110;BME280;59983;52.010;5.420;2024-03-17T05:56:03;102052.69;;;17.14;70.31
72110;BME280;59983;52.010;5.420;2024-03-17T05:58:29;102055.44;;;17.14;70.21
72110;BME280;59983;52.010;5.420;2024-03-17T06:00:55;102046.44;;;17.13;69.96
72110;BME280;59983;52.010;5.420;2024-03-17T06:03:21;102063.66;;;17.14;70.14
72110;BME280;59983;52.010;5.420;2024-03-17T06:05:47;102057.75;;;17.12;70.15
72110;BME280;59983;52.010;5.420;2024-03-17T06:08:14;102059.34;;;17.13;70.08
72110;BME280;59983;52.010;5.420;2024-03-17T06:10:45;102055.03;;;17.12;70.18
72110;BME280;59983;52.010;5.420;2024-03-17T06:13:12;102055.38;;;17.10;70.32
72110;BME280;59983;52.010;5.420;2024-03-17T06:15:39;102047.16;;;17.10;70.23
72110;BME280;59983;52.010;5.420;2024-03-17T06:18:05;102051.47;;;17.11;70.12
72110;BME280;59983;52.010;5.420;2024-03-17T06:20:34;102056.97;;;17.11;70.12
72110;BME280;59983;52.010;5.420;2024-03-17T06:23:00;102052.63;;;17.10;70.33
72110;BME280;59983;52.010;5.420;2024-03-17T06:25:26;102051.84;;;17.10;70.34
72110;BME280;59983;52.010;5.420;2024-03-17T06:27:53;102053.44;;;17.11;70.23
72110;BME280;59983;52.010;5.420;2024-03-17T06:30:20;102053.00;;;17.09;70.17
72110;BME280;59983;52.010;5.420;2024-03-17T06:32:46;102059.28;;;17.09;70.34
72110;BME280;59983;52.010;5.420;2024-03-17T06:35:13;102058.13;;;17.10;70.23
72110;BME280;59983;52.010;5.420;2024-03-17T06:37:44;102042.84;;;17.09;70.22
72110;BME280;59983;52.010;5.420;2024-03-17T06:40:13;102038.13;;;17.10;70.15
72110;BME280;59983;52.010;5.420;2024-03-17T06:42:39;102032.22;;;17.08;70.09
72110;BME280;59983;52.010;5.420;2024-03-17T06:45:06;102040.09;;;17.09;70.35
72110;BME280;59983;52.010;5.420;2024-03-17T06:47:35;102045.56;;;17.09;70.12
72110;BME280;59983;52.010;5.420;2024-03-17T06:50:04;102050.25;;;17.09;70.34
72110;BME280;59983;52.010;5.420;2024-03-17T06:52:30;102060.44;;;17.08;70.15
72110;BME280;59983;52.010;5.420;2024-03-17T06:54:57;102064.75;;;17.09;70.34
72110;BME280;59983;52.010;5.420;2024-03-17T06:57:27;102056.91;;;17.08;70.35
72110;BME280;59983;52.010;5.420;2024-03-17T06:59:52;102051.06;;;17.09;70.22
72110;BME280;59983;52.010;5.420;2024-03-17T07:02:18;102056.53;;;17.09;70.38
72110;BME280;59983;52.010;5.420;2024-03-17T07:04:48;102047.53;;;17.09;70.30
72110;BME280;59983;52.010;5.420;2024-03-17T07:07:14;102053.78;;;17.09;70.30
72110;BME280;59983;52.010;5.420;2024-03-17T07:09:40;102050.25;;;17.09;70.34
72110;BME280;59983;52.010;5.420;2024-03-17T07:12:10;102060.06;;;17.10;70.32
72110;BME280;59983;52.010;5.420;2024-03-17T07:14:36;102062.81;;;17.10;70.44
72110;BME280;59983;52.010;5.420;2024-03-17T07:17:03;102053.78;;;17.09;70.18
72110;BME280;59983;52.010;5.420;2024-03-17T07:19:28;102057.75;;;17.12;70.21
72110;BME280;59983;52.010;5.420;2024-03-17T07:21:57;102065.28;;;17.15;70.22
72110;BME280;59983;52.010;5.420;2024-03-17T07:24:22;102066.88;;;17.16;70.11
72110;BME280;59983;52.010;5.420;2024-03-17T07:26:49;102069.25;;;17.17;69.96
72110;BME280;59983;52.010;5.420;2024-03-17T07:29:15;102057.91;;;17.19;69.75
72110;BME280;59983;52.010;5.420;2024-03-17T07:31:41;102057.56;;;17.20;69.71
72110;BME280;59983;52.010;5.420;2024-03-17T07:34:07;102052.50;;;17.22;69.75
72110;BME280;59983;52.010;5.420;2024-03-17T07:36:33;102058.44;;;17.24;69.77
72110;BME280;59983;52.010;5.420;2024-03-17T07:38:58;102047.09;;;17.26;69.74
72110;BME280;59983;52.010;5.420;2024-03-17T07:41:24;102048.31;;;17.28;69.83
72110;BME280;59983;52.010;5.420;2024-03-17T07:43:50;102046.00;;;17.31;69.87
72110;BME280;59983;52.010;5.420;2024-03-17T07:46:16;102049.19;;;17.33;69.97
72110;BME280;59983;52.010;5.420;2024-03-17T07:48:43;102053.16;;;17.35;70.03
72110;BME280;59983;52.010;5.420;2024-03-17T07:51:10;102047.31;;;17.37;69.88
72110;BME280;59983;52.010;5.420;2024-03-17T07:53:37;102046.56;;;17.40;70.12
72110;BME280;59983;52.010;5.420;2024-03-17T07:56:08;102043.91;;;17.43;70.35
72110;BME280;59983;52.010;5.420;2024-03-17T07:58:38;102044.34;;;17.45;70.48
72110;BME280;59983;52.010;5.420;2024-03-17T08:01:16;102041.66;;;17.49;70.24
72110;BME280;59983;52.010;5.420;2024-03-17T08:03:44;102040.94;;;17.52;70.48
72110;BME280;59983;52.010;5.420;2024-03-17T08:06:11;102043.75;;;17.55;70.25
72110;BME280;59983;52.010;5.420;2024-03-17T08:08:37;102045.78;;;17.59;70.21
72110;BME280;59983;52.010;5.420;2024-03-17T08:11:03;102045.84;;;17.62;69.97
72110;BME280;59983;52.010;5.420;2024-03-17T08:13:30;102046.25;;;17.64;69.92
72110;BME280;59983;52.010;5.420;2024-03-17T08:16:04;102056.53;;;17.67;70.18
72110;BME280;59983;52.010;5.420;2024-03-17T08:18:36;102049.53;;;17.70;70.00
72110;BME280;59983;52.010;5.420;2024-03-17T08:21:03;102050.75;;;17.72;69.86
72110;BME280;59983;52.010;5.420;2024-03-17T08:23:35;102038.25;;;17.75;69.87
72110;BME280;59983;52.010;5.420;2024-03-17T08:26:04;102037.91;;;17.76;69.90
72110;BME280;59983;52.010;5.420;2024-03-17T08:28:30;102030.91;;;17.79;69.84
72110;BME280;59983;52.010;5.420;2024-03-17T08:30:58;102021.91;;;17.82;69.98
72110;BME280;59983;52.010;5.420;2024-03-17T08:33:24;102036.88;;;17.85;69.71
72110;BME280;59983;52.010;5.420;2024-03-17T08:35:57;102036.94;;;17.88;69.77
72110;BME280;59983;52.010;5.420;2024-03-17T08:38:23;102045.16;;;17.88;69.81
72110;BME280;59983;52.010;5.420;2024-03-17T08:40:50;102038.94;;;17.91;69.73
72110;BME280;59983;52.010;5.420;2024-03-17T08:43:16;102039.34;;;17.93;69.58
72110;BME280;59983;52.010;5.420;2024-03-17T08:45:41;102030.00;;;17.94;69.42
72110;BME280;59983;52.010;5.420;2024-03-17T08:48:08;102033.16;;;17.96;69.42
72110;BME280;59983;52.010;5.420;2024-03-17T08:50:36;102034.75;;;17.97;69.46
72110;BME280;59983;52.010;5.420;2024-03-17T08:53:02;102038.69;;;18.00;69.45
72110;BME280;59983;52.010;5.420;2024-03-17T08:55:28;102036.75;;;18.00;69.33
72110;BME280;59983;52.010;5.420;2024-03-17T08:57:53;102039.13;;;18.02;69.36
72110;BME280;59983;52.010;5.420;2024-03-17T09:00:19;102028.13;;;18.02;69.25
72110;BME280;59983;52.010;5.420;2024-03-17T09:02:45;102030.53;;;18.03;69.38
72110;BME280;59983;52.010;5.420;2024-03-17T09:05:10;102038.78;;;18.03;69.22
72110;BME280;59983;52.010;5.420;2024-03-17T09:07:38;102030.53;;;18.03;69.25
72110;BME280;59983;52.010;5.420;2024-03-17T09:10:05;102022.72;;;18.05;69.37
72110;BME280;59983;52.010;5.420;2024-03-17T09:12:30;102030.97;;;18.05;69.28
72110;BME280;59983;52.010;5.420;2024-03-17T09:14:56;102018.81;;;18.06;69.27
72110;BME280;59983;52.010;5.420;2024-03-17T09:17:22;102025.88;;;18.07;69.27
72110;BME280;59983;52.010;5.420;2024-03-17T09:19:48;102020.41;;;18.07;69.17
72110;BME280;59983;52.010;5.420;2024-03-17T09:22:13;102012.16;;;18.07;69.35
72110;BME280;59983;52.010;5.420;2024-03-17T09:24:39;102020.81;;;18.09;69.10
72110;BME280;59983;52.010;5.420;2024-03-17T09:27:06;102022.75;;;18.09;69.10
72110;BME280;59983;52.010;5.420;2024-03-17T09:29:32;102022.41;;;18.10;69.13
72110;BME280;59983;52.010;5.420;2024-03-17T09:31:58;102023.56;;;18.09;69.11
72110;BME280;59983;52.010;5.420;2024-03-17T09:34:24;102020.47;;;18.11;69.15
72110;BME280;59983;52.010;5.420;2024-03-17T09:36:50;102014.16;;;18.10;69.31
72110;BME280;59983;52.010;5.420;2024-03-17T09:39:16;102010.63;;;18.10;69.15
72110;BME280;59983;52.010;5.420;2024-03-17T09:41:42;102020.09;;;18.13;69.12
72110;BME280;59983;52.010;5.420;2024-03-17T09:44:11;102007.53;;;18.11;69.10
72110;BME280;59983;52.010;5.420;2024-03-17T09:46:39;102020.09;;;18.13;69.06
72110;BME280;59983;52.010;5.420;2024-03-17T09:49:09;102014.22;;;18.14;69.23
72110;BME280;59983;52.010;5.420;2024-03-17T09:51:39;102013.44;;;18.14;69.21
72110;BME280;59983;52.010;5.420;2024-03-17T09:54:17;102016.19;;;18.14;69.17
72110;BME280;59983;52.010;5.420;2024-03-17T09:56:44;102011.50;;;18.14;68.94
72110;BME280;59983;52.010;5.420;2024-03-17T09:59:10;102012.28;;;18.15;69.28
72110;BME280;59983;52.010;5.420;2024-03-17T10:01:36;102000.50;;;18.14;69.02
72110;BME280;59983;52.010;5.420;2024-03-17T10:04:02;102001.28;;;18.15;69.17
72110;BME280;59983;52.010;5.420;2024-03-17T10:06:30;101995.00;;;18.14;69.10
72110;BME280;59983;52.010;5.420;2024-03-17T10:08:57;101993.44;;;18.13;69.00
72110;BME280;59983;52.010;5.420;2024-03-17T10:11:25;102000.13;;;18.16;68.91
72110;BME280;59983;52.010;5.420;2024-03-17T10:14:02;102002.88;;;18.16;69.04
72110;BME280;59983;52.010;5.420;2024-03-17T10:16:30;102000.13;;;18.16;69.09
72110;BME280;59983;52.010;5.420;2024-03-17T10:19:16;101995.81;;;18.15;69.01
72110;BME280;59983;52.010;5.420;2024-03-17T10:21:47;101999.34;;;18.15;68.91
72110;BME280;59983;52.010;5.420;2024-03-17T10:26:52;101990.31;;;18.15;69.04
72110;BME280;59983;52.010;5.420;2024-03-17T10:29:26;101995.44;;;18.16;68.89
72110;BME280;59983;52.010;5.420;2024-03-17T10:31:54;101990.31;;;18.15;68.98
72110;BME280;59983;52.010;5.420;2024-03-17T10:34:21;101983.22;;;18.14;68.84
72110;BME280;59983;52.010;5.420;2024-03-17T10:36:51;101989.53;;;18.14;68.86
72110;BME280;59983;52.010;5.420;2024-03-17T10:39:25;101980.13;;;18.15;68.93
72110;BME280;59983;52.010;5.420;2024-03-17T10:42:03;101980.53;;;18.17;68.90
72110;BME280;59983;52.010;5.420;2024-03-17T10:44:34;101985.66;;;18.19;68.92
72110;BME280;59983;52.010;5.420;2024-03-17T10:47:01;101976.63;;;18.18;68.89
72110;BME280;59983;52.010;5.420;2024-03-17T10:49:32;101980.94;;;18.19;69.07
72110;BME280;59983;52.010;5.420;2024-03-17T10:52:04;101976.25;;;18.20;69.01
72110;BME280;59983;52.010;5.420;2024-03-17T10:54:30;101977.41;;;18.19;69.22
72110;BME280;59983;52.010;5.420;2024-03-17T10:59:56;101975.91;;;18.21;69.22
72110;BME280;59983;52.010;5.420;2024-03-17T11:02:25;101966.06;;;18.20;69.33
72110;BME280;59983;52.010;5.420;2024-03-17T11:04:52;101964.13;;;18.21;69.49
72110;BME280;59983;52.010;5.420;2024-03-17T11:07:19;101964.13;;;18.21;69.35
72110;BME280;59983;52.010;5.420;2024-03-17T11:09:46;101962.97;;;18.22;69.36
72110;BME280;59983;52.010;5.420;2024-03-17T11:17:45;101962.97;;;18.22;69.36
72110;BME280;59983;52.010;5.420;2024-03-17T11:20:27;101966.91;;;18.24;69.24
72110;BME280;59983;52.010;5.420;2024-03-17T11:22:58;101964.16;;;18.24;69.33
72110;BME280;59983;52.010;5.420;2024-03-17T11:27:57;101961.78;;;18.23;69.45
72110;BME280;59983;52.010;5.420;2024-03-17T11:39:02;101952.75;;;18.22;69.42
72110;BME280;59983;52.010;5.420;2024-03-17T11:41:49;101955.50;;;18.22;69.37
72110;BME280;59983;52.010;5.420;2024-03-17T11:47:07;101959.44;;;18.21;69.48
72110;BME280;59983;52.010;5.420;2024-03-17T11:49:40;101960.22;;;18.22;69.55
72110;BME280;59983;52.010;5.420;2024-03-17T11:52:16;101956.69;;;18.21;69.46
72110;BME280;59983;52.010;5.420;2024-03-17T11:54:43;101963.34;;;18.20;69.51
72110;BME280;59983;52.010;5.420;2024-03-17T11:57:10;101959.44;;;18.21;69.74
72110;BME280;59983;52.010;5.420;2024-03-17T11:59:37;101955.88;;;18.21;69.73
72110;BME280;59983;52.010;5.420;2024-03-17T12:02:10;101948.44;;;18.21;69.67
72110;BME280;59983;52.010;5.420;2024-03-17T12:04:42;101948.00;;;18.19;69.63
72110;BME280;59983;52.010;5.420;2024-03-17T12:07:13;101941.38;;;18.20;69.59
72110;BME280;59983;52.010;5.420;2024-03-17T12:09:41;101947.66;;;18.21;69.60
72110;BME280;59983;52.010;5.420;2024-03-17T12:12:16;101942.16;;;18.21;69.51
72110;BME280;59983;52.010;5.420;2024-03-17T12:14:42;101933.13;;;18.20;69.76
72110;BME280;59983;52.010;5.420;2024-03-17T12:17:09;101933.91;;;18.21;69.70
72110;BME280;59983;52.010;5.420;2024-03-17T12:19:35;101923.28;;;18.19;69.72
72110;BME280;59983;52.010;5.420;2024-03-17T12:22:04;101922.13;;;18.20;69.77
72110;BME280;59983;52.010;5.420;2024-03-17T12:24:35;101925.69;;;18.21;69.63
72110;BME280;59983;52.010;5.420;2024-03-17T12:27:05;101909.97;;;18.21;69.81
72110;BME280;59983;52.010;5.420;2024-03-17T12:29:40;101914.69;;;18.21;69.41
72110;BME280;59983;52.010;5.420;2024-03-17T12:32:14;101915.47;;;18.21;69.69
72110;BME280;59983;52.010;5.420;2024-03-17T12:34:42;101915.47;;;18.21;69.65
72110;BME280;59983;52.010;5.420;2024-03-17T12:37:08;101908.03;;;18.22;69.77
72110;BME280;59983;52.010;5.420;2024-03-17T12:39:41;101906.44;;;18.21;69.80
72110;BME280;59983;52.010;5.420;2024-03-17T12:42:26;101903.31;;;18.22;69.73
72110;BME280;59983;52.010;5.420;2024-03-17T12:44:59;101905.28;;;18.22;69.85
72110;BME280;59983;52.010;5.420;2024-03-17T12:47:26;101890.75;;;18.21;69.76
72110;BME280;59983;52.010;5.420;2024-03-17T12:49:56;101884.81;;;18.19;69.68
72110;BME280;59983;52.010;5.420;2024-03-17T12:52:32;101890.75;;;18.21;69.72
72110;BME280;59983;52.010;5.420;2024-03-17T12:55:05;101883.69;;;18.20;69.97
72110;BME280;59983;52.010;5.420;2024-03-17T12:57:50;101885.28;;;18.21;69.77
72110;BME280;59983;52.010;5.420;2024-03-17T13:00:35;101874.28;;;18.21;69.74
72110;BME280;59983;52.010;5.420;2024-03-17T13:03:04;101875.06;;;18.22;69.76
72110;BME280;59983;52.010;5.420;2024-03-17T13:05:34;101885.28;;;18.21;69.75
72110;BME280;59983;52.010;5.420;2024-03-17T13:08:00;101874.28;;;18.21;69.95
72110;BME280;59983;52.010;5.420;2024-03-17T13:10:28;101871.53;;;18.21;70.01
72110;BME280;59983;52.010;5.420;2024-03-17T13:13:08;101874.28;;;18.21;69.97
72110;BME280;59983;52.010;5.420;2024-03-17T13:15:34;101871.53;;;18.21;70.00
72110;BME280;59983;52.010;5.420;2024-03-17T13:18:04;101859.75;;;18.21;69.86